createdAt,value
2023-01-29T00:00:10.012Z,-0.88
2023-01-29T00:03:16.245Z,-0.81
2023-01-29T00:06:18.718Z,-0.84
2023-01-29T00:09:21.385Z,-0.75
2023-01-29T00:12:23.785Z,-0.94
2023-01-29T00:15:26.159Z,-0.92
2023-01-29T00:18:29.916Z,-0.92
2023-01-29T00:21:32.584Z,-0.92
2023-01-29T00:24:35.047Z,-0.90
2023-01-29T00:27:38.608Z,-0.77
2023-01-29T00:30:41.231Z,-0.81
2023-01-29T00:33:43.723Z,-0.87
2023-01-29T00:36:46.440Z,-0.70
2023-01-29T00:39:49.386Z,-0.39
2023-01-29T00:43:10.630Z,-0.49
2023-01-29T00:46:14.321Z,-0.18
2023-01-29T00:49:16.945Z,-0.07
2023-01-29T00:52:24.949Z,-0.13
2023-01-29T00:55:27.465Z,0.11
2023-01-29T00:58:34.236Z,0.14
2023-01-29T01:01:55.313Z,0.28
2023-01-29T01:04:57.878Z,0.16
2023-01-29T01:08:00.328Z,0.38
2023-01-29T01:11:06.461Z,0.07
2023-01-29T01:14:09.240Z,0.37
2023-01-29T01:17:11.614Z,0.36
2023-01-29T01:20:14.829Z,0.54
2023-01-29T01:23:19.601Z,0.48
2023-01-29T01:26:21.971Z,0.45
2023-01-29T01:29:24.656Z,0.55
2023-01-29T01:32:27.181Z,0.48
2023-01-29T01:35:29.702Z,0.74
2023-01-29T01:38:32.069Z,0.67
2023-01-29T01:41:34.432Z,0.60
2023-01-29T01:45:06.461Z,0.47
2023-01-29T01:48:15.463Z,0.75
2023-01-29T01:51:19.574Z,0.51
2023-01-29T01:54:27.476Z,0.57
2023-01-29T01:57:32.287Z,0.73
2023-01-29T02:00:34.986Z,0.55
2023-01-29T02:04:12.906Z,0.56
2023-01-29T02:07:34.097Z,0.75
2023-01-29T02:10:42.807Z,0.48
2023-01-29T02:13:45.373Z,0.81
2023-01-29T02:16:47.923Z,0.58
2023-01-29T02:20:06.511Z,0.77
2023-01-29T02:23:23.389Z,0.82
2023-01-29T02:26:39.184Z,0.83
2023-01-29T02:30:11.434Z,0.84
2023-01-29T02:33:37.225Z,0.81
2023-01-29T02:36:57.010Z,0.86
2023-01-29T02:40:12.612Z,0.86
2023-01-29T02:43:42.912Z,0.88
2023-01-29T02:47:01.216Z,0.89
2023-01-29T02:50:26.610Z,0.62
2023-01-29T02:53:41.260Z,0.79
2023-01-29T02:56:53.769Z,0.78
2023-01-29T03:00:02.591Z,0.80
2023-01-29T03:03:12.638Z,0.78
2023-01-29T03:06:32.301Z,0.59
2023-01-29T03:09:41.454Z,0.73
2023-01-29T03:12:47.815Z,0.68
2023-01-29T03:16:01.453Z,0.81
2023-01-29T03:19:50.940Z,0.81
2023-01-29T03:23:03.896Z,0.79
2023-01-29T03:26:25.329Z,0.66
2023-01-29T03:29:50.592Z,0.63
2023-01-29T03:32:55.596Z,0.49
2023-01-29T03:36:08.892Z,0.55
2023-01-29T03:39:12.940Z,0.68
2023-01-29T03:42:30.331Z,0.74
2023-01-29T03:45:43.305Z,0.67
2023-01-29T03:49:01.173Z,0.81
2023-01-29T03:52:19.994Z,0.77
2023-01-29T03:55:43.482Z,0.79
2023-01-29T03:59:19.487Z,0.78
2023-01-29T04:02:46.720Z,0.81
2023-01-29T04:05:58.650Z,0.68
2023-01-29T04:09:16.700Z,0.88
2023-01-29T04:12:24.609Z,0.92
2023-01-29T04:15:30.077Z,0.70
2023-01-29T04:18:33.551Z,0.85
2023-01-29T04:21:49.432Z,0.93
2023-01-29T04:24:52.010Z,1.05
2023-01-29T04:28:06.143Z,0.96
2023-01-29T04:31:12.655Z,0.90
2023-01-29T04:34:28.797Z,0.91
2023-01-29T04:37:56.604Z,0.90
2023-01-29T04:41:11.563Z,0.91
2023-01-29T04:44:23.879Z,0.79
2023-01-29T04:47:45.379Z,0.72
2023-01-29T04:51:12.876Z,0.86
2023-01-29T04:54:30.193Z,0.92
2023-01-29T04:57:53.265Z,0.84
2023-01-29T05:00:58.825Z,1.02
2023-01-29T05:04:11.020Z,0.84
2023-01-29T05:07:15.440Z,1.01
2023-01-29T05:10:21.312Z,0.96
2023-01-29T05:13:25.603Z,1.04
2023-01-29T05:16:42.145Z,1.03
2023-01-29T05:19:45.851Z,1.09
2023-01-29T05:22:49.225Z,0.98
2023-01-29T05:25:52.108Z,0.97
2023-01-29T05:28:56.173Z,1.28
2023-01-29T05:31:58.907Z,1.12
2023-01-29T05:35:01.490Z,0.95
2023-01-29T05:38:04.106Z,1.16
2023-01-29T05:41:14.068Z,1.29
2023-01-29T05:44:16.459Z,1.04
2023-01-29T05:47:20.436Z,0.97
2023-01-29T05:50:23.820Z,0.98
2023-01-29T05:53:26.127Z,1.10
2023-01-29T05:56:28.502Z,0.87
2023-01-29T05:59:31.316Z,0.96
2023-01-29T06:02:33.804Z,0.84
2023-01-29T06:05:39.736Z,0.83
2023-01-29T06:08:42.296Z,0.50
2023-01-29T06:11:44.823Z,1.00
2023-01-29T06:14:47.189Z,1.05
2023-01-29T06:17:49.594Z,0.88
2023-01-29T06:20:52.431Z,0.96
2023-01-29T06:23:55.218Z,0.97
2023-01-29T06:26:57.536Z,0.95
2023-01-29T06:29:59.849Z,1.12
2023-01-29T06:33:02.859Z,1.01
2023-01-29T06:36:05.869Z,1.04
2023-01-29T06:39:08.262Z,1.10
2023-01-29T06:42:11.227Z,1.19
2023-01-29T06:45:13.672Z,1.07
2023-01-29T06:48:16.464Z,0.96
2023-01-29T06:51:19.021Z,1.17
2023-01-29T06:54:21.408Z,1.17
2023-01-29T06:57:23.880Z,1.20
2023-01-29T07:00:26.269Z,1.09
2023-01-29T07:03:28.663Z,0.91
2023-01-29T07:06:31.611Z,1.00
2023-01-29T07:09:34.040Z,1.19
2023-01-29T07:12:36.404Z,1.18
2023-01-29T07:15:38.762Z,1.14
2023-01-29T07:18:41.119Z,1.30
2023-01-29T07:21:43.644Z,1.24
2023-01-29T07:24:46.104Z,1.29
2023-01-29T07:27:48.948Z,1.07
2023-01-29T07:30:56.303Z,1.42
2023-01-29T07:33:58.717Z,1.03
2023-01-29T07:37:01.056Z,1.33
2023-01-29T07:40:05.357Z,1.18
2023-01-29T07:43:10.535Z,1.26
2023-01-29T07:46:14.128Z,1.16
2023-01-29T07:49:16.928Z,1.42
2023-01-29T07:52:21.945Z,1.59
2023-01-29T07:55:25.241Z,1.50
2023-01-29T07:58:27.694Z,1.31
2023-01-29T08:01:30.173Z,1.42
2023-01-29T08:04:32.623Z,1.67
2023-01-29T08:07:35.172Z,1.66
2023-01-29T08:10:39.414Z,1.64
2023-01-29T08:13:41.924Z,1.78
2023-01-29T08:16:44.336Z,1.84
2023-01-29T08:19:46.748Z,1.73
2023-01-29T08:22:49.479Z,1.76
2023-01-29T08:25:52.146Z,1.85
2023-01-29T08:28:54.695Z,1.80
2023-01-29T08:31:57.424Z,1.65
2023-01-29T08:34:59.857Z,1.90
2023-01-29T08:38:03.980Z,2.11
2023-01-29T08:41:07.381Z,1.93
2023-01-29T08:44:10.257Z,2.17
2023-01-29T08:47:12.586Z,2.25
2023-01-29T08:50:16.720Z,1.86
2023-01-29T08:53:24.362Z,2.08
2023-01-29T08:56:26.736Z,2.18
2023-01-29T08:59:29.144Z,2.00
2023-01-29T09:02:31.589Z,1.96
2023-01-29T09:05:38.807Z,2.01
2023-01-29T09:08:41.504Z,1.89
2023-01-29T09:11:44.606Z,2.09
2023-01-29T09:14:46.995Z,2.07
2023-01-29T09:17:49.558Z,2.21
2023-01-29T09:20:54.198Z,2.10
2023-01-29T09:23:56.602Z,2.28
2023-01-29T09:27:00.947Z,2.26
2023-01-29T09:30:05.405Z,2.27
2023-01-29T09:33:08.363Z,2.48
2023-01-29T09:36:10.761Z,2.69
2023-01-29T09:39:13.168Z,2.46
2023-01-29T09:42:41.939Z,2.31
2023-01-29T09:46:08.074Z,2.46
2023-01-29T09:49:41.760Z,2.62
2023-01-29T09:52:58.902Z,2.77
2023-01-29T09:56:06.066Z,2.59
2023-01-29T09:59:12.434Z,2.61
2023-01-29T10:02:55.941Z,2.49
2023-01-29T10:06:35.759Z,2.62
2023-01-29T10:10:22.526Z,2.69
2023-01-29T10:13:47.864Z,2.62
2023-01-29T10:17:15.917Z,2.77
2023-01-29T10:20:39.716Z,2.64
2023-01-29T10:23:50.287Z,2.23
2023-01-29T10:26:52.963Z,2.29
2023-01-29T10:29:56.451Z,2.65
2023-01-29T10:33:02.661Z,2.67
2023-01-29T10:36:10.964Z,2.58
2023-01-29T10:39:24.481Z,2.51
2023-01-29T10:42:34.304Z,2.71
2023-01-29T10:46:08.951Z,2.51
2023-01-29T10:49:39.038Z,2.58
2023-01-29T10:52:59.457Z,2.51
2023-01-29T10:56:14.072Z,2.50
2023-01-29T10:59:44.649Z,2.50
2023-01-29T11:02:50.399Z,2.46
2023-01-29T11:06:17.704Z,2.68
2023-01-29T11:09:20.229Z,2.77
2023-01-29T11:12:27.316Z,2.68
2023-01-29T11:15:32.482Z,2.58
2023-01-29T11:18:52.945Z,2.58
2023-01-29T11:22:01.179Z,2.60
2023-01-29T11:25:22.525Z,2.64
2023-01-29T11:28:43.217Z,2.68
2023-01-29T11:31:45.766Z,2.57
2023-01-29T11:35:09.945Z,2.46
2023-01-29T11:38:27.017Z,2.53
2023-01-29T11:41:29.537Z,2.52
2023-01-29T11:44:41.602Z,2.62
2023-01-29T11:47:49.244Z,2.68
2023-01-29T11:50:55.652Z,2.47
2023-01-29T11:54:01.943Z,2.66
2023-01-29T11:57:04.942Z,2.55
2023-01-29T12:00:21.738Z,2.59
2023-01-29T12:03:43.811Z,2.58
2023-01-29T12:06:51.963Z,2.70
2023-01-29T12:09:57.937Z,2.63
2023-01-29T12:13:27.693Z,2.81
2023-01-29T12:16:38.964Z,2.83
2023-01-29T12:19:46.728Z,2.89
2023-01-29T12:23:01.256Z,2.82
2023-01-29T12:26:11.192Z,2.87
2023-01-29T12:29:13.972Z,2.86
2023-01-29T12:32:28.960Z,2.93
2023-01-29T12:35:35.762Z,2.92
2023-01-29T12:38:38.212Z,2.80
2023-01-29T12:41:50.806Z,3.00
2023-01-29T12:45:08.712Z,3.07
2023-01-29T12:48:17.493Z,3.01
2023-01-29T12:51:31.171Z,2.80
2023-01-29T12:54:50.064Z,2.61
2023-01-29T12:57:57.692Z,2.89
2023-01-29T13:01:16.827Z,2.76
2023-01-29T13:04:30.963Z,2.88
2023-01-29T13:07:41.222Z,2.86
2023-01-29T13:10:49.121Z,2.99
2023-01-29T13:13:56.422Z,3.06
2023-01-29T13:17:09.915Z,2.79
2023-01-29T13:20:24.379Z,2.83
2023-01-29T13:23:42.049Z,2.92
2023-01-29T13:26:46.459Z,2.73
2023-01-29T13:29:49.160Z,2.84
2023-01-29T13:32:54.396Z,2.64
2023-01-29T13:36:00.139Z,2.41
2023-01-29T13:39:07.459Z,2.48
2023-01-29T13:42:37.801Z,2.28
2023-01-29T13:45:45.049Z,2.25
2023-01-29T13:48:50.954Z,2.19
2023-01-29T13:51:54.267Z,2.12
2023-01-29T13:55:21.396Z,2.20
2023-01-29T13:58:32.581Z,2.32
2023-01-29T14:01:46.859Z,2.42
2023-01-29T14:04:49.701Z,2.34
2023-01-29T14:07:52.142Z,2.30
2023-01-29T14:11:21.573Z,2.37
2023-01-29T14:14:49.104Z,2.47
2023-01-29T14:18:18.444Z,2.25
2023-01-29T14:21:28.460Z,2.11
2023-01-29T14:24:31.409Z,2.13
2023-01-29T14:27:36.656Z,2.19
2023-01-29T14:30:41.123Z,2.11
2023-01-29T14:33:45.317Z,2.07
2023-01-29T14:36:55.254Z,1.96
2023-01-29T14:40:08.018Z,1.78
2023-01-29T14:43:20.056Z,1.90
2023-01-29T14:46:43.458Z,1.92
2023-01-29T14:50:26.976Z,1.73
2023-01-29T14:53:48.464Z,1.56
2023-01-29T14:57:00.061Z,1.63
2023-01-29T15:00:14.981Z,1.68
2023-01-29T15:03:27.514Z,1.80
2023-01-29T15:06:53.098Z,1.77
2023-01-29T15:10:21.501Z,1.85
2023-01-29T15:13:35.744Z,1.80
2023-01-29T15:16:59.310Z,1.78
2023-01-29T15:20:01.969Z,1.70
2023-01-29T15:23:23.659Z,1.50
2023-01-29T15:26:27.179Z,1.68
2023-01-29T15:29:30.301Z,1.61
2023-01-29T15:32:36.657Z,1.61
2023-01-29T15:35:41.353Z,1.64
2023-01-29T15:38:46.774Z,1.66
2023-01-29T15:41:51.841Z,1.64
2023-01-29T15:44:57.494Z,1.83
2023-01-29T15:48:12.260Z,1.52
2023-01-29T15:51:18.541Z,1.64
2023-01-29T15:54:21.161Z,1.46
2023-01-29T15:57:28.322Z,1.31
2023-01-29T16:00:31.486Z,1.46
2023-01-29T16:03:36.041Z,1.39
2023-01-29T16:06:41.007Z,1.58
2023-01-29T16:09:44.015Z,1.56
2023-01-29T16:12:51.446Z,1.47
2023-01-29T16:15:55.714Z,1.44
2023-01-29T16:19:00.806Z,1.52
2023-01-29T16:22:06.833Z,1.53
2023-01-29T16:25:14.740Z,1.39
2023-01-29T16:28:18.096Z,1.42
2023-01-29T16:31:25.760Z,1.36
2023-01-29T16:34:35.499Z,1.29
2023-01-29T16:37:38.947Z,1.18
2023-01-29T16:41:13.124Z,1.31
2023-01-29T16:44:15.840Z,1.37
2023-01-29T16:47:37.570Z,1.25
2023-01-29T16:50:53.887Z,1.39
2023-01-29T16:54:02.253Z,1.32
2023-01-29T16:57:04.949Z,1.24
2023-01-29T17:00:18.629Z,1.37
2023-01-29T17:03:21.665Z,0.92
2023-01-29T17:06:26.597Z,1.36
2023-01-29T17:09:35.213Z,1.22
2023-01-29T17:12:39.110Z,1.34
2023-01-29T17:15:43.089Z,1.31
2023-01-29T17:18:45.659Z,0.98
2023-01-29T17:21:48.261Z,1.02
2023-01-29T17:24:51.582Z,0.89
2023-01-29T17:27:54.268Z,0.65
2023-01-29T17:31:10.810Z,0.61
2023-01-29T17:34:15.349Z,0.86
2023-01-29T17:37:18.079Z,0.56
2023-01-29T17:40:55.842Z,0.65
2023-01-29T17:43:58.639Z,0.76
2023-01-29T17:47:01.220Z,0.53
2023-01-29T17:50:21.355Z,0.53
2023-01-29T17:53:26.551Z,0.66
2023-01-29T17:56:33.216Z,0.69
2023-01-29T17:59:36.044Z,0.62
2023-01-29T18:02:39.816Z,0.44
2023-01-29T18:05:48.205Z,0.63
2023-01-29T18:08:50.826Z,0.71
2023-01-29T18:11:54.062Z,0.63
2023-01-29T18:14:56.792Z,0.57
2023-01-29T18:17:59.716Z,0.60
2023-01-29T18:21:02.368Z,0.69
2023-01-29T18:24:05.216Z,0.57
2023-01-29T18:27:08.793Z,0.80
2023-01-29T18:30:12.747Z,0.87
2023-01-29T18:33:16.901Z,0.87
2023-01-29T18:36:20.078Z,0.80
2023-01-29T18:39:22.720Z,0.59
2023-01-29T18:42:25.517Z,0.71
2023-01-29T18:45:28.746Z,0.66
2023-01-29T18:48:31.558Z,0.64
2023-01-29T18:51:34.292Z,0.58
2023-01-29T18:54:37.055Z,0.69
2023-01-29T18:58:26.541Z,0.75
2023-01-29T19:01:09.106Z,0.61
2023-01-29T19:04:12.282Z,0.77
2023-01-29T19:07:15.576Z,0.72
2023-01-29T19:10:18.729Z,0.90
2023-01-29T19:13:21.541Z,0.91
2023-01-29T19:16:24.244Z,0.85
2023-01-29T19:19:28.059Z,0.74
2023-01-29T19:22:32.232Z,0.85
2023-01-29T19:25:43.626Z,0.81
2023-01-29T19:28:46.723Z,0.76
2023-01-29T19:31:49.469Z,0.76
2023-01-29T19:34:52.547Z,0.67
2023-01-29T19:37:55.189Z,0.41
2023-01-29T19:40:59.836Z,0.46
2023-01-29T19:44:02.253Z,0.53
2023-01-29T19:47:05.638Z,0.64
2023-01-29T19:50:10.019Z,0.68
2023-01-29T19:53:12.735Z,0.47
2023-01-29T19:56:17.601Z,0.45
2023-01-29T19:59:20.892Z,0.35
2023-01-29T20:02:25.117Z,0.21
2023-01-29T20:05:27.524Z,0.25
2023-01-29T20:08:31.130Z,0.22
2023-01-29T20:11:34.084Z,0.18
2023-01-29T20:14:36.449Z,0.31
2023-01-29T20:17:39.268Z,0.48
2023-01-29T20:20:46.312Z,0.47
2023-01-29T20:23:50.429Z,0.33
2023-01-29T20:26:53.023Z,0.33
2023-01-29T20:29:55.827Z,0.45
2023-01-29T20:32:58.661Z,0.39
2023-01-29T20:36:03.314Z,0.40
2023-01-29T20:39:05.637Z,0.46
2023-01-29T20:42:08.313Z,0.43
2023-01-29T20:45:10.888Z,0.59
2023-01-29T20:48:13.564Z,0.38
2023-01-29T20:51:17.751Z,0.63
2023-01-29T20:54:20.488Z,0.62
2023-01-29T20:57:23.204Z,0.51
2023-01-29T21:00:25.530Z,0.61
2023-01-29T21:03:28.273Z,0.72
2023-01-29T21:06:31.018Z,0.71
2023-01-29T21:09:33.510Z,0.66
2023-01-29T21:12:36.156Z,0.60
2023-01-29T21:15:38.890Z,0.33
2023-01-29T21:18:41.086Z,0.57
2023-01-29T21:21:43.432Z,0.34
2023-01-29T21:24:46.187Z,0.37
2023-01-29T21:27:49.261Z,0.17
2023-01-29T21:31:02.652Z,0.53
2023-01-29T21:34:05.717Z,0.62
2023-01-29T21:37:09.672Z,0.35
2023-01-29T21:40:13.627Z,0.48
2023-01-29T21:43:16.291Z,0.46
2023-01-29T21:46:18.660Z,0.40
2023-01-29T21:49:21.596Z,0.62
2023-01-29T21:52:23.967Z,0.56
2023-01-29T21:55:26.376Z,0.46
2023-01-29T21:58:29.874Z,0.37
2023-01-29T22:01:37.916Z,0.24
2023-01-29T22:04:42.383Z,0.31
2023-01-29T22:07:44.850Z,0.31
2023-01-29T22:10:47.410Z,0.20
2023-01-29T22:13:50.024Z,0.27
2023-01-29T22:16:52.533Z,0.12
2023-01-29T22:19:55.045Z,0.13
2023-01-29T22:23:00.733Z,0.30
2023-01-29T22:26:07.588Z,0.00
2023-01-29T22:29:13.824Z,-0.10
2023-01-29T22:32:16.479Z,-0.12
2023-01-29T22:35:18.937Z,-0.21
2023-01-29T22:38:22.703Z,-0.38
2023-01-29T22:41:25.056Z,-0.17
2023-01-29T22:44:27.401Z,-0.08
2023-01-29T22:47:32.818Z,-0.36
2023-01-29T22:50:35.180Z,-0.25
2023-01-29T22:53:44.658Z,-0.14
2023-01-29T22:56:47.048Z,-0.09
2023-01-29T22:59:49.472Z,-0.03
2023-01-29T23:02:52.156Z,-0.08
2023-01-29T23:05:54.494Z,0.04
2023-01-29T23:08:57.138Z,-0.16
2023-01-29T23:11:59.531Z,-0.14
2023-01-29T23:15:01.982Z,-0.20
2023-01-29T23:18:05.742Z,-0.18
2023-01-29T23:21:08.864Z,-0.25
2023-01-29T23:24:11.511Z,0.10
2023-01-29T23:27:16.510Z,0.19
2023-01-29T23:30:19.303Z,0.01
2023-01-29T23:33:22.145Z,-0.22
2023-01-29T23:36:24.671Z,-0.18
2023-01-29T23:39:27.047Z,0.08
2023-01-29T23:42:29.443Z,0.08
2023-01-29T23:45:31.812Z,0.08
2023-01-29T23:48:34.312Z,0.13
2023-01-29T23:51:36.717Z,0.05
2023-01-29T23:54:39.043Z,0.11
2023-01-29T23:57:41.467Z,-0.16
